sensor_id;sensor_type;location;lat;lon;timestamp;pressure;altitude;pressure_sealevel;temperature;humidity
3294;BME280;1659;51.470;6.770;2023-08-06T00:01:23;100301.25;;;15.76;96.69
3294;BME280;1659;51.470;6.770;2023-08-06T00:03:50;100299.56;;;15.74;96.73
3294;BME280;1659;51.470;6.770;2023-08-06T00:06:18;100292.72;;;15.68;96.77
3294;BME280;1659;51.470;6.770;2023-08-06T00:08:45;100299.16;;;15.64;96.90
3294;BME280;1659;51.470;6.770;2023-08-06T00:11:12;100293.91;;;15.62;97.25
3294;BME280;1659;51.470;6.770;2023-08-06T00:13:39;100299.28;;;15.61;97.42
3294;BME280;1659;51.470;6.770;2023-08-06T00:16:09;100289.56;;;15.60;97.45
3294;BME280;1659;51.470;6.770;2023-08-06T00:18:36;100284.31;;;15.58;97.51
3294;BME280;1659;51.470;6.770;2023-08-06T00:21:03;100276.38;;;15.57;97.70
3294;BME280;1659;51.470;6.770;2023-08-06T00:23:31;100279.03;;;15.57;97.79
3294;BME280;1659;51.470;6.770;2023-08-06T00:25:57;100273.72;;;15.57;97.77
3294;BME280;1659;51.470;6.770;2023-08-06T00:28:24;100272.78;;;15.58;97.88
3294;BME280;1659;51.470;6.770;2023-08-06T00:30:52;100275.53;;;15.56;98.02
3294;BME280;1659;51.470;6.770;2023-08-06T00:33:19;100262.22;;;15.56;98.11
3294;BME280;1659;51.470;6.770;2023-08-06T00:35:46;100262.22;;;15.56;98.20
3294;BME280;1659;51.470;6.770;2023-08-06T00:38:13;100263.06;;;15.57;98.37
3294;BME280;1659;51.470;6.770;2023-08-06T00:40:41;100261.28;;;15.57;98.42
3294;BME280;1659;51.470;6.770;2023-08-06T00:43:07;100261.28;;;15.57;98.37
3294;BME280;1659;51.470;6.770;2023-08-06T00:45:35;100260.34;;;15.58;98.45
3294;BME280;1659;51.470;6.770;2023-08-06T00:48:04;100261.22;;;15.59;98.49
3294;BME280;1659;51.470;6.770;2023-08-06T00:50:31;100260.34;;;15.58;98.52
3294;BME280;1659;51.470;6.770;2023-08-06T00:52:58;100257.59;;;15.60;98.66
3294;BME280;1659;51.470;6.770;2023-08-06T00:55:25;100246.94;;;15.60;98.81
3294;BME280;1659;51.470;6.770;2023-08-06T00:57:54;100253.94;;;15.62;98.82
3294;BME280;1659;51.470;6.770;2023-08-06T01:00:23;100251.28;;;15.62;98.57
3294;BME280;1659;51.470;6.770;2023-08-06T01:02:50;100245.94;;;15.62;98.77
3294;BME280;1659;51.470;6.770;2023-08-06T01:05:17;100245.06;;;15.62;98.86
3294;BME280;1659;51.470;6.770;2023-08-06T01:07:51;100244.22;;;15.61;98.98
3294;BME280;1659;51.470;6.770;2023-08-06T01:10:32;100243.34;;;15.61;99.07
3294;BME280;1659;51.470;6.770;2023-08-06T01:13:11;100236.22;;;15.61;99.19
3294;BME280;1659;51.470;6.770;2023-08-06T01:15:45;100242.41;;;15.62;99.35
3294;BME280;1659;51.470;6.770;2023-08-06T01:18:12;100245.00;;;15.63;99.39
3294;BME280;1659;51.470;6.770;2023-08-06T01:20:41;100237.00;;;15.63;99.31
3294;BME280;1659;51.470;6.770;2023-08-06T01:23:07;100236.94;;;15.65;99.37
3294;BME280;1659;51.470;6.770;2023-08-06T01:25:38;100239.53;;;15.66;99.46
3294;BME280;1659;51.470;6.770;2023-08-06T01:28:13;100235.94;;;15.67;99.44
3294;BME280;1659;51.470;6.770;2023-08-06T01:30:43;100238.59;;;15.67;99.43
3294;BME280;1659;51.470;6.770;2023-08-06T01:33:13;100241.19;;;15.69;99.50
3294;BME280;1659;51.470;6.770;2023-08-06T01:35:44;100242.06;;;15.70;99.72
3294;BME280;1659;51.470;6.770;2023-08-06T01:38:10;100237.56;;;15.70;99.52
3294;BME280;1659;51.470;6.770;2023-08-06T01:40:37;100240.16;;;15.72;99.62
3294;BME280;1659;51.470;6.770;2023-08-06T01:43:04;100238.34;;;15.72;99.68
3294;BME280;1659;51.470;6.770;2023-08-06T01:45:30;100233.03;;;15.72;99.65
3294;BME280;1659;51.470;6.770;2023-08-06T01:47:57;100231.25;;;15.73;99.70
3294;BME280;1659;51.470;6.770;2023-08-06T01:50:23;100233.03;;;15.72;99.71
3294;BME280;1659;51.470;6.770;2023-08-06T01:52:51;100229.50;;;15.72;99.58
3294;BME280;1659;51.470;6.770;2023-08-06T01:55:18;100230.44;;;15.71;99.69
3294;BME280;1659;51.470;6.770;2023-08-06T01:57:44;100230.44;;;15.71;99.72
3294;BME280;1659;51.470;6.770;2023-08-06T02:00:12;100232.19;;;15.72;99.74
3294;BME280;1659;51.470;6.770;2023-08-06T02:02:39;100220.66;;;15.71;99.69
3294;BME280;1659;51.470;6.770;2023-08-06T02:05:06;100218.94;;;15.70;99.72
3294;BME280;1659;51.470;6.770;2023-08-06T02:07:33;100227.94;;;15.67;99.68
3294;BME280;1659;51.470;6.770;2023-08-06T02:10:01;100213.81;;;15.65;99.65
3294;BME280;1659;51.470;6.770;2023-08-06T02:12:27;100217.44;;;15.64;99.69
3294;BME280;1659;51.470;6.770;2023-08-06T02:14:54;100213.03;;;15.63;99.82
3294;BME280;1659;51.470;6.770;2023-08-06T02:17:21;100220.19;;;15.63;99.83
3294;BME280;1659;51.470;6.770;2023-08-06T02:19:47;100218.38;;;15.63;99.99
3294;BME280;1659;51.470;6.770;2023-08-06T02:22:14;100216.66;;;15.62;99.96
3294;BME280;1659;51.470;6.770;2023-08-06T02:24:40;100216.66;;;15.62;100.00
3294;BME280;1659;51.470;6.770;2023-08-06T02:27:08;100217.56;;;15.61;99.97
3294;BME280;1659;51.470;6.770;2023-08-06T02:29:35;100212.31;;;15.60;100.00
3294;BME280;1659;51.470;6.770;2023-08-06T02:32:01;100206.22;;;15.58;100.00
3294;BME280;1659;51.470;6.770;2023-08-06T02:34:28;100208.03;;;15.57;100.00
3294;BME280;1659;51.470;6.770;2023-08-06T02:36:55;100200.03;;;15.57;100.00
3294;BME280;1659;51.470;6.770;2023-08-06T02:39:21;100204.47;;;15.57;100.00
3294;BME280;1659;51.470;6.770;2023-08-06T02:41:48;100201.91;;;15.55;100.00
3294;BME280;1659;51.470;6.770;2023-08-06T02:44:16;100203.75;;;15.53;100.00
3294;BME280;1659;51.470;6.770;2023-08-06T02:46:44;100198.59;;;15.50;100.00
3294;BME280;1659;51.470;6.770;2023-08-06T02:49:10;100198.75;;;15.47;100.00
3294;BME280;1659;51.470;6.770;2023-08-06T02:51:37;100191.69;;;15.46;100.00
3294;BME280;1659;51.470;6.770;2023-08-06T02:54:04;100192.66;;;15.45;100.00
3294;BME280;1659;51.470;6.770;2023-08-06T02:56:30;100190.97;;;15.42;100.00
3294;BME280;1659;51.470;6.770;2023-08-06T02:58:57;100186.53;;;15.43;100.00
3294;BME280;1659;51.470;6.770;2023-08-06T03:01:25;100189.25;;;15.41;100.00
3294;BME280;1659;51.470;6.770;2023-08-06T03:03:52;100184.78;;;15.42;100.00
3294;BME280;1659;51.470;6.770;2023-08-06T03:06:18;100176.94;;;15.39;100.00
3294;BME280;1659;51.470;6.770;2023-08-06T03:08:45;100177.09;;;15.36;100.00
3294;BME280;1659;51.470;6.770;2023-08-06T03:11:12;100177.25;;;15.33;100.00
3294;BME280;1659;51.470;6.770;2023-08-06T03:13:38;100174.75;;;15.29;100.00
3294;BME280;1659;51.470;6.770;2023-08-06T03:16:05;100171.38;;;15.26;100.00
3294;BME280;1659;51.470;6.770;2023-08-06T03:18:33;100170.59;;;15.24;100.00
3294;BME280;1659;51.470;6.770;2023-08-06T03:20:59;100170.72;;;15.21;100.00
3294;BME280;1659;51.470;6.770;2023-08-06T03:23:26;100167.34;;;15.17;100.00
3294;BME280;1659;51.470;6.770;2023-08-06T03:25:52;100165.66;;;15.15;100.00
3294;BME280;1659;51.470;6.770;2023-08-06T03:28:19;100176.38;;;15.13;100.00
3294;BME280;1659;51.470;6.770;2023-08-06T03:30:46;100179.94;;;15.14;100.00
3294;BME280;1659;51.470;6.770;2023-08-06T03:33:12;100180.72;;;15.16;100.00
3294;BME280;1659;51.470;6.770;2023-08-06T03:35:40;100178.91;;;15.16;100.00
3294;BME280;1659;51.470;6.770;2023-08-06T03:38:07;100172.66;;;15.17;100.00
3294;BME280;1659;51.470;6.770;2023-08-06T03:40:34;100169.94;;;15.19;100.00
3294;BME280;1659;51.470;6.770;2023-08-06T03:43:01;100174.31;;;15.20;100.00
3294;BME280;1659;51.470;6.770;2023-08-06T03:45:28;100162.81;;;15.19;100.00
3294;BME280;1659;51.470;6.770;2023-08-06T03:47:54;100167.19;;;15.20;100.00
3294;BME280;1659;51.470;6.770;2023-08-06T03:50:21;100168.13;;;15.19;100.00
3294;BME280;1659;51.470;6.770;2023-08-06T03:52:49;100163.91;;;15.15;100.00
3294;BME280;1659;51.470;6.770;2023-08-06T03:55:15;100158.72;;;15.12;100.00
3294;BME280;1659;51.470;6.770;2023-08-06T03:57:42;100172.16;;;15.09;100.00
3294;BME280;1659;51.470;6.770;2023-08-06T04:00:09;100165.25;;;15.05;100.00
3294;BME280;1659;51.470;6.770;2023-08-06T04:02:36;100167.13;;;15.03;100.00
3294;BME280;1659;51.470;6.770;2023-08-06T04:05:02;100171.56;;;15.02;100.00
3294;BME280;1659;51.470;6.770;2023-08-06T04:07:29;100160.94;;;15.02;100.00
3294;BME280;1659;51.470;6.770;2023-08-06T04:09:59;100168.91;;;15.02;100.00
3294;BME280;1659;51.470;6.770;2023-08-06T04:12:26;100166.25;;;15.02;100.00
3294;BME280;1659;51.470;6.770;2023-08-06T04:14:53;100167.03;;;15.04;100.00
3294;BME280;1659;51.470;6.770;2023-08-06T04:17:20;100167.03;;;15.04;100.00
3294;BME280;1659;51.470;6.770;2023-08-06T04:19:48;100160.00;;;15.03;100.00
3294;BME280;1659;51.470;6.770;2023-08-06T04:22:15;100159.22;;;15.01;100.00
3294;BME280;1659;51.470;6.770;2023-08-06T04:24:42;100163.75;;;14.99;100.00
3294;BME280;1659;51.470;6.770;2023-08-06T04:27:11;100159.44;;;14.97;100.00
3294;BME280;1659;51.470;6.770;2023-08-06T04:29:38;100164.81;;;14.95;100.00
3294;BME280;1659;51.470;6.770;2023-08-06T04:32:06;100163.09;;;14.94;100.00
3294;BME280;1659;51.470;6.770;2023-08-06T04:34:34;100163.97;;;14.95;100.00
3294;BME280;1659;51.470;6.770;2023-08-06T04:37:02;100157.69;;;14.96;100.00
3294;BME280;1659;51.470;6.770;2023-08-06T04:39:28;100161.16;;;14.98;100.00
3294;BME280;1659;51.470;6.770;2023-08-06T04:41:55;100164.53;;;15.01;100.00
3294;BME280;1659;51.470;6.770;2023-08-06T04:44:24;100166.97;;;15.06;100.00
3294;BME280;1659;51.470;6.770;2023-08-06T04:46:50;100164.25;;;15.07;100.00
3294;BME280;1659;51.470;6.770;2023-08-06T04:49:17;100172.00;;;15.12;100.00
3294;BME280;1659;51.470;6.770;2023-08-06T04:51:43;100162.94;;;15.16;100.00
3294;BME280;1659;51.470;6.770;2023-08-06T04:54:10;100165.41;;;15.21;100.00
3294;BME280;1659;51.470;6.770;2023-08-06T04:56:36;100161.56;;;15.26;100.00
3294;BME280;1659;51.470;6.770;2023-08-06T04:59:03;100159.63;;;15.30;100.00
3294;BME280;1659;51.470;6.770;2023-08-06T05:01:31;100162.06;;;15.35;100.00
3294;BME280;1659;51.470;6.770;2023-08-06T05:03:58;100160.06;;;15.40;100.00
3294;BME280;1659;51.470;6.770;2023-08-06T05:06:24;100164.22;;;15.45;100.00
3294;BME280;1659;51.470;6.770;2023-08-06T05:08:51;100159.44;;;15.52;100.00
3294;BME280;1659;51.470;6.770;2023-08-06T05:11:17;100168.00;;;15.59;100.00
3294;BME280;1659;51.470;6.770;2023-08-06T05:13:44;100169.50;;;15.64;100.00
3294;BME280;1659;51.470;6.770;2023-08-06T05:16:11;100163.00;;;15.70;100.00
3294;BME280;1659;51.470;6.770;2023-08-06T05:18:39;100162.81;;;15.75;100.00
3294;BME280;1659;51.470;6.770;2023-08-06T05:21:07;100167.81;;;15.81;100.00
3294;BME280;1659;51.470;6.770;2023-08-06T05:23:33;100175.50;;;15.87;100.00
3294;BME280;1659;51.470;6.770;2023-08-06T05:26:00;100170.81;;;15.92;100.00
3294;BME280;1659;51.470;6.770;2023-08-06T05:28:27;100173.94;;;16.00;100.00
3294;BME280;1659;51.470;6.770;2023-08-06T05:30:53;100169.94;;;16.09;100.00
3294;BME280;1659;51.470;6.770;2023-08-06T05:33:20;100183.75;;;16.17;100.00
3294;BME280;1659;51.470;6.770;2023-08-06T05:35:49;100186.19;;;16.22;100.00
3294;BME280;1659;51.470;6.770;2023-08-06T05:38:16;100189.41;;;16.29;100.00
3294;BME280;1659;51.470;6.770;2023-08-06T05:40:42;100192.78;;;16.32;100.00
3294;BME280;1659;51.470;6.770;2023-08-06T05:43:09;100195.19;;;16.37;100.00
3294;BME280;1659;51.470;6.770;2023-08-06T05:45:36;100196.50;;;16.46;100.00
3294;BME280;1659;51.470;6.770;2023-08-06T05:48:03;100189.44;;;16.62;100.00
3294;BME280;1659;51.470;6.770;2023-08-06T05:50:29;100196.84;;;16.73;100.00
3294;BME280;1659;51.470;6.770;2023-08-06T05:52:57;100198.09;;;16.83;100.00
3294;BME280;1659;51.470;6.770;2023-08-06T05:55:24;100199.50;;;16.90;99.58
3294;BME280;1659;51.470;6.770;2023-08-06T05:57:50;100201.94;;;16.95;99.28
3294;BME280;1659;51.470;6.770;2023-08-06T06:00:18;100205.63;;;16.92;99.11
3294;BME280;1659;51.470;6.770;2023-08-06T06:02:46;100211.03;;;16.91;99.09
3294;BME280;1659;51.470;6.770;2023-08-06T06:05:12;100213.09;;;16.86;98.76
3294;BME280;1659;51.470;6.770;2023-08-06T06:07:39;100209.97;;;16.77;98.69
3294;BME280;1659;51.470;6.770;2023-08-06T06:10:08;100204.72;;;16.76;98.68
3294;BME280;1659;51.470;6.770;2023-08-06T06:12:35;100216.00;;;16.81;98.60
3294;BME280;1659;51.470;6.770;2023-08-06T06:15:01;100212.94;;;16.89;98.45
3294;BME280;1659;51.470;6.770;2023-08-06T06:17:29;100220.03;;;17.06;97.56
3294;BME280;1659;51.470;6.770;2023-08-06T06:19:55;100210.75;;;17.29;96.92
3294;BME280;1659;51.470;6.770;2023-08-06T06:22:22;100210.22;;;17.54;95.75
3294;BME280;1659;51.470;6.770;2023-08-06T06:24:48;100213.69;;;17.72;94.54
3294;BME280;1659;51.470;6.770;2023-08-06T06:27:16;100213.31;;;17.94;93.04
3294;BME280;1659;51.470;6.770;2023-08-06T06:29:43;100214.44;;;18.20;92.65
3294;BME280;1659;51.470;6.770;2023-08-06T06:32:10;100223.34;;;18.65;91.25
3294;BME280;1659;51.470;6.770;2023-08-06T06:34:36;100218.28;;;19.33;88.43
3294;BME280;1659;51.470;6.770;2023-08-06T06:37:03;100227.50;;;19.56;87.51
3294;BME280;1659;51.470;6.770;2023-08-06T06:39:30;100225.69;;;19.56;87.30
3294;BME280;1659;51.470;6.770;2023-08-06T06:41:57;100227.75;;;19.66;86.99
3294;BME280;1659;51.470;6.770;2023-08-06T06:44:25;100223.97;;;19.55;86.45
3294;BME280;1659;51.470;6.770;2023-08-06T06:46:51;100229.84;;;19.33;86.71
3294;BME280;1659;51.470;6.770;2023-08-06T06:49:18;100229.28;;;19.28;86.94
3294;BME280;1659;51.470;6.770;2023-08-06T06:51:44;100228.88;;;19.34;86.69
3294;BME280;1659;51.470;6.770;2023-08-06T06:54:11;100219.38;;;19.99;84.81
3294;BME280;1659;51.470;6.770;2023-08-06T06:56:38;100213.69;;;20.69;82.45
3294;BME280;1659;51.470;6.770;2023-08-06T06:59:04;100224.16;;;21.49;80.63
3294;BME280;1659;51.470;6.770;2023-08-06T07:01:32;100220.00;;;22.29;78.33
3294;BME280;1659;51.470;6.770;2023-08-06T07:03:59;100227.41;;;23.19;76.23
3294;BME280;1659;51.470;6.770;2023-08-06T07:06:29;100215.38;;;23.78;74.89
3294;BME280;1659;51.470;6.770;2023-08-06T07:08:56;100219.31;;;24.39;73.71
3294;BME280;1659;51.470;6.770;2023-08-06T07:11:23;100212.97;;;24.92;72.48
3294;BME280;1659;51.470;6.770;2023-08-06T07:13:49;100223.19;;;25.19;71.44
3294;BME280;1659;51.470;6.770;2023-08-06T07:16:16;100215.47;;;25.45;70.70
3294;BME280;1659;51.470;6.770;2023-08-06T07:18:44;100220.66;;;25.87;69.71
3294;BME280;1659;51.470;6.770;2023-08-06T07:21:11;100220.28;;;26.02;69.27
3294;BME280;1659;51.470;6.770;2023-08-06T07:23:37;100224.00;;;25.40;70.47
3294;BME280;1659;51.470;6.770;2023-08-06T07:26:04;100220.47;;;24.78;72.19
3294;BME280;1659;51.470;6.770;2023-08-06T07:28:30;100229.66;;;24.34;73.08
3294;BME280;1659;51.470;6.770;2023-08-06T07:30:57;100228.75;;;23.91;73.49
3294;BME280;1659;51.470;6.770;2023-08-06T07:33:24;100239.25;;;23.39;75.21
3294;BME280;1659;51.470;6.770;2023-08-06T07:35:51;100228.22;;;22.97;75.87
3294;BME280;1659;51.470;6.770;2023-08-06T07:38:18;100233.41;;;22.53;76.41
3294;BME280;1659;51.470;6.770;2023-08-06T07:40:45;100229.09;;;22.28;76.44
3294;BME280;1659;51.470;6.770;2023-08-06T07:43:11;100227.53;;;22.13;76.39
3294;BME280;1659;51.470;6.770;2023-08-06T07:45:38;100235.06;;;22.08;76.00
3294;BME280;1659;51.470;6.770;2023-08-06T07:48:05;100237.84;;;21.95;75.66
3294;BME280;1659;51.470;6.770;2023-08-06T07:50:32;100245.09;;;21.81;76.17
3294;BME280;1659;51.470;6.770;2023-08-06T07:53:00;100247.03;;;21.55;76.96
3294;BME280;1659;51.470;6.770;2023-08-06T07:55:26;100241.78;;;21.41;77.19
3294;BME280;1659;51.470;6.770;2023-08-06T07:57:53;100246.88;;;21.20;77.50
3294;BME280;1659;51.470;6.770;2023-08-06T08:00:20;100249.34;;;20.97;77.76
3294;BME280;1659;51.470;6.770;2023-08-06T08:02:46;100243.53;;;20.65;78.34
3294;BME280;1659;51.470;6.770;2023-08-06T08:05:13;100249.81;;;20.38;78.87
3294;BME280;1659;51.470;6.770;2023-08-06T08:07:39;100249.53;;;20.15;79.37
3294;BME280;1659;51.470;6.770;2023-08-06T08:10:08;100244.84;;;19.92;79.88
3294;BME280;1659;51.470;6.770;2023-08-06T08:12:34;100259.28;;;19.76;80.45
3294;BME280;1659;51.470;6.770;2023-08-06T08:15:01;100256.59;;;19.62;80.72
3294;BME280;1659;51.470;6.770;2023-08-06T08:17:28;100258.81;;;19.55;80.80
3294;BME280;1659;51.470;6.770;2023-08-06T08:19:55;100257.38;;;19.50;81.13
3294;BME280;1659;51.470;6.770;2023-08-06T08:22:21;100257.88;;;19.42;81.15
3294;BME280;1659;51.470;6.770;2023-08-06T08:24:48;100260.84;;;19.37;81.21
3294;BME280;1659;51.470;6.770;2023-08-06T08:27:16;100262.75;;;19.35;81.23
3294;BME280;1659;51.470;6.770;2023-08-06T08:29:42;100269.19;;;19.33;81.40
3294;BME280;1659;51.470;6.770;2023-08-06T08:32:09;100256.84;;;19.30;81.49
3294;BME280;1659;51.470;6.770;2023-08-06T08:34:36;100271.00;;;19.32;81.42
3294;BME280;1659;51.470;6.770;2023-08-06T08:37:02;100268.22;;;19.34;81.24
3294;BME280;1659;51.470;6.770;2023-08-06T08:39:31;100271.88;;;19.33;81.41
3294;BME280;1659;51.470;6.770;2023-08-06T08:41:58;100272.81;;;19.32;81.26
3294;BME280;1659;51.470;6.770;2023-08-06T08:44:26;100278.06;;;19.33;81.46
3294;BME280;1659;51.470;6.770;2023-08-06T08:46:54;100276.44;;;19.31;81.45
3294;BME280;1659;51.470;6.770;2023-08-06T08:49:23;100277.50;;;19.28;81.46
3294;BME280;1659;51.470;6.770;2023-08-06T08:51:51;100278.56;;;19.26;81.56
3294;BME280;1659;51.470;6.770;2023-08-06T08:54:20;100278.66;;;19.24;81.51
3294;BME280;1659;51.470;6.770;2023-08-06T08:56:49;100275.31;;;19.20;81.60
3294;BME280;1659;51.470;6.770;2023-08-06T08:59:15;100279.13;;;19.16;81.65
3294;BME280;1659;51.470;6.770;2023-08-06T09:01:44;100277.88;;;19.08;81.85
3294;BME280;1659;51.470;6.770;2023-08-06T09:04:16;100289.25;;;18.97;82.20
3294;BME280;1659;51.470;6.770;2023-08-06T09:06:46;100285.25;;;18.90;82.38
3294;BME280;1659;51.470;6.770;2023-08-06T09:09:17;100293.53;;;18.85;82.60
3294;BME280;1659;51.470;6.770;2023-08-06T09:11:48;100292.00;;;18.81;82.75
3294;BME280;1659;51.470;6.770;2023-08-06T09:14:16;100294.09;;;18.76;82.87
3294;BME280;1659;51.470;6.770;2023-08-06T09:16:44;100300.38;;;18.75;82.87
3294;BME280;1659;51.470;6.770;2023-08-06T09:19:11;100298.75;;;18.72;83.01
3294;BME280;1659;51.470;6.770;2023-08-06T09:21:38;100296.94;;;18.73;82.90
3294;BME280;1659;51.470;6.770;2023-08-06T09:24:09;100297.69;;;18.75;83.07
3294;BME280;1659;51.470;6.770;2023-08-06T09:26:36;100298.13;;;18.83;82.82
3294;BME280;1659;51.470;6.770;2023-08-06T09:29:05;100303.31;;;18.86;82.78
3294;BME280;1659;51.470;6.770;2023-08-06T09:31:40;100302.34;;;18.87;82.48
3294;BME280;1659;51.470;6.770;2023-08-06T09:34:12;100305.81;;;18.89;82.56
3294;BME280;1659;51.470;6.770;2023-08-06T09:36:41;100305.50;;;18.94;82.67
3294;BME280;1659;51.470;6.770;2023-08-06T09:39:14;100301.50;;;19.01;82.44
3294;BME280;1659;51.470;6.770;2023-08-06T09:41:41;100309.00;;;19.10;82.34
3294;BME280;1659;51.470;6.770;2023-08-06T09:44:15;100311.09;;;19.19;82.29
3294;BME280;1659;51.470;6.770;2023-08-06T09:46:42;100315.28;;;19.23;82.06
3294;BME280;1659;51.470;6.770;2023-08-06T09:49:08;100311.75;;;19.23;82.26
3294;BME280;1659;51.470;6.770;2023-08-06T09:51:37;100309.06;;;19.23;82.14
3294;BME280;1659;51.470;6.770;2023-08-06T09:54:05;100315.00;;;19.28;82.12
3294;BME280;1659;51.470;6.770;2023-08-06T09:56:33;100314.81;;;19.31;82.28
3294;BME280;1659;51.470;6.770;2023-08-06T09:59:04;100309.72;;;19.41;81.97
3294;BME280;1659;51.470;6.770;2023-08-06T10:01:32;100311.53;;;19.55;81.95
3294;BME280;1659;51.470;6.770;2023-08-06T10:03:59;100313.00;;;19.75;81.91
3294;BME280;1659;51.470;6.770;2023-08-06T10:06:26;100319.91;;;20.06;81.17
3294;BME280;1659;51.470;6.770;2023-08-06T10:08:56;100316.16;;;20.36;80.57
3294;BME280;1659;51.470;6.770;2023-08-06T10:11:24;100314.78;;;20.56;80.09
3294;BME280;1659;51.470;6.770;2023-08-06T10:13:55;100311.09;;;20.71;79.72
3294;BME280;1659;51.470;6.770;2023-08-06T10:16:25;100316.38;;;20.86;79.31
3294;BME280;1659;51.470;6.770;2023-08-06T10:18:52;100312.09;;;20.83;79.16
3294;BME280;1659;51.470;6.770;2023-08-06T10:21:20;100305.84;;;20.83;79.20
3294;BME280;1659;51.470;6.770;2023-08-06T10:23:53;100314.44;;;20.88;78.95
3294;BME280;1659;51.470;6.770;2023-08-06T10:26:25;100310.81;;;20.89;79.16
3294;BME280;1659;51.470;6.770;2023-08-06T10:28:53;100313.81;;;20.97;79.16
3294;BME280;1659;51.470;6.770;2023-08-06T10:31:20;100316.41;;;21.11;78.75
3294;BME280;1659;51.470;6.770;2023-08-06T10:33:47;100315.44;;;21.25;78.29
3294;BME280;1659;51.470;6.770;2023-08-06T10:36:15;100312.59;;;21.40;77.96
3294;BME280;1659;51.470;6.770;2023-08-06T10:38:45;100317.66;;;21.57;77.30
3294;BME280;1659;51.470;6.770;2023-08-06T10:41:23;100314.63;;;21.75;76.97
3294;BME280;1659;51.470;6.770;2023-08-06T10:44:05;100305.94;;;21.95;76.48
3294;BME280;1659;51.470;6.770;2023-08-06T10:46:32;100314.94;;;22.07;76.42
3294;BME280;1659;51.470;6.770;2023-08-06T10:48:59;100315.31;;;22.14;76.16
3294;BME280;1659;51.470;6.770;2023-08-06T10:51:25;100326.25;;;21.99;76.43
3294;BME280;1659;51.470;6.770;2023-08-06T10:53:52;100336.81;;;21.65;76.25
3294;BME280;1659;51.470;6.770;2023-08-06T10:56:20;100333.81;;;21.06;77.16
3294;BME280;1659;51.470;6.770;2023-08-06T10:58:53;100344.09;;;20.46;78.08
3294;BME280;1659;51.470;6.770;2023-08-06T11:01:21;100356.16;;;19.85;79.24
3294;BME280;1659;51.470;6.770;2023-08-06T11:03:49;100362.06;;;19.03;80.69
3294;BME280;1659;51.470;6.770;2023-08-06T11:06:18;100374.38;;;18.14;83.52
3294;BME280;1659;51.470;6.770;2023-08-06T11:08:47;100383.38;;;17.47;85.18
3294;BME280;1659;51.470;6.770;2023-08-06T11:11:15;100378.53;;;17.03;86.35
3294;BME280;1659;51.470;6.770;2023-08-06T11:13:43;100380.09;;;16.72;87.03
3294;BME280;1659;51.470;6.770;2023-08-06T11:16:13;100381.78;;;16.56;87.79
3294;BME280;1659;51.470;6.770;2023-08-06T11:18:39;100394.09;;;16.41;88.16
3294;BME280;1659;51.470;6.770;2023-08-06T11:21:06;100395.41;;;16.32;88.37
3294;BME280;1659;51.470;6.770;2023-08-06T11:23:34;100393.53;;;16.15;88.79
3294;BME280;1659;51.470;6.770;2023-08-06T11:26:01;100392.47;;;16.00;89.16
3294;BME280;1659;51.470;6.770;2023-08-06T11:28:28;100399.09;;;15.92;89.87
3294;BME280;1659;51.470;6.770;2023-08-06T11:30:55;100404.00;;;15.82;90.36
3294;BME280;1659;51.470;6.770;2023-08-06T11:33:24;100406.19;;;15.72;90.71
3294;BME280;1659;51.470;6.770;2023-08-06T11:35:52;100404.88;;;15.62;91.29
3294;BME280;1659;51.470;6.770;2023-08-06T11:38:18;100410.44;;;15.57;91.83
3294;BME280;1659;51.470;6.770;2023-08-06T11:40:45;100407.75;;;15.57;92.17
3294;BME280;1659;51.470;6.770;2023-08-06T11:43:12;100420.06;;;15.60;92.40
3294;BME280;1659;51.470;6.770;2023-08-06T11:45:38;100419.94;;;15.63;92.49
3294;BME280;1659;51.470;6.770;2023-08-06T11:48:05;100420.84;;;15.62;92.71
3294;BME280;1659;51.470;6.770;2023-08-06T11:50:37;100422.66;;;15.61;92.91
3294;BME280;1659;51.470;6.770;2023-08-06T11:53:04;100427.06;;;15.62;93.13
3294;BME280;1659;51.470;6.770;2023-08-06T11:55:31;100428.63;;;15.66;93.16
3294;BME280;1659;51.470;6.770;2023-08-06T11:57:58;100431.97;;;15.72;93.32
3294;BME280;1659;51.470;6.770;2023-08-06T12:00:25;100439.97;;;15.72;93.34
3294;BME280;1659;51.470;6.770;2023-08-06T12:02:52;100432.75;;;15.74;93.46
3294;BME280;1659;51.470;6.770;2023-08-06T12:05:21;100446.91;;;15.76;93.44
3294;BME280;1659;51.470;6.770;2023-08-06T12:07:51;100444.16;;;15.77;93.53
3294;BME280;1659;51.470;6.770;2023-08-06T12:10:19;100439.78;;;15.76;93.44
3294;BME280;1659;51.470;6.770;2023-08-06T12:12:46;100444.16;;;15.77;93.63
3294;BME280;1659;51.470;6.770;2023-08-06T12:15:13;100448.44;;;15.81;93.65
3294;BME280;1659;51.470;6.770;2023-08-06T12:17:40;100445.59;;;15.84;93.79
3294;BME280;1659;51.470;6.770;2023-08-06T12:20:07;100457.81;;;15.90;93.76
3294;BME280;1659;51.470;6.770;2023-08-06T12:22:34;100441.66;;;15.93;93.89
3294;BME280;1659;51.470;6.770;2023-08-06T12:25:06;100450.31;;;15.98;93.88
3294;BME280;1659;51.470;6.770;2023-08-06T12:27:34;100463.28;;;16.06;93.99
3294;BME280;1659;51.470;6.770;2023-08-06T12:30:00;100453.19;;;16.13;93.86
3294;BME280;1659;51.470;6.770;2023-08-06T12:32:27;100452.19;;;16.15;93.96
3294;BME280;1659;51.470;6.770;2023-08-06T12:34:53;100459.16;;;16.18;94.06
3294;BME280;1659;51.470;6.770;2023-08-06T12:37:20;100457.16;;;16.23;94.16
3294;BME280;1659;51.470;6.770;2023-08-06T12:39:48;100465.78;;;16.28;93.99
3294;BME280;1659;51.470;6.770;2023-08-06T12:42:16;100463.63;;;16.36;94.12
3294;BME280;1659;51.470;6.770;2023-08-06T12:44:43;100477.41;;;16.46;93.98
3294;BME280;1659;51.470;6.770;2023-08-06T12:47:09;100482.75;;;16.46;93.83
3294;BME280;1659;51.470;6.770;2023-08-06T12:49:36;100480.09;;;16.46;93.88
3294;BME280;1659;51.470;6.770;2023-08-06T12:52:03;100488.09;;;16.46;93.87
3294;BME280;1659;51.470;6.770;2023-08-06T12:54:31;100487.19;;;16.46;93.91
3294;BME280;1659;51.470;6.770;2023-08-06T12:57:01;100487.06;;;16.49;93.82
3294;BME280;1659;51.470;6.770;2023-08-06T12:59:30;100489.66;;;16.50;93.83
3294;BME280;1659;51.470;6.770;2023-08-06T13:01:57;100491.47;;;16.50;93.65
3294;BME280;1659;51.470;6.770;2023-08-06T13:04:23;100487.84;;;16.51;93.65
3294;BME280;1659;51.470;6.770;2023-08-06T13:06:50;100501.09;;;16.52;93.70
3294;BME280;1659;51.470;6.770;2023-08-06T13:09:16;100500.25;;;16.52;93.75